sensor_id;sensor_type;location;lat;lon;timestamp;P1;durP1;ratioP1;P2;durP2;ratioP2
13185;SDS011;6658;53.080;7.428;2023-11-21T00:00:31;12.50;;;8.90;;
13185;SDS011;6658;53.080;7.428;2023-11-21T00:02:56;12.53;;;8.57;;
13185;SDS011;6658;53.080;7.428;2023-11-21T00:05:22;14.73;;;8.67;;
13185;SDS011;6658;53.080;7.428;2023-11-21T00:07:48;12.30;;;8.67;;
13185;SDS011;6658;53.080;7.428;2023-11-21T00:10:14;16.13;;;9.33;;
13185;SDS011;6658;53.080;7.428;2023-11-21T00:12:41;14.93;;;8.37;;
13185;SDS011;6658;53.080;7.428;2023-11-21T00:15:07;14.90;;;9.30;;
13185;SDS011;6658;53.080;7.428;2023-11-21T00:17:39;16.63;;;9.67;;
13185;SDS011;6658;53.080;7.428;2023-11-21T00:20:05;13.73;;;7.93;;
13185;SDS011;6658;53.080;7.428;2023-11-21T00:22:35;13.03;;;9.10;;
13185;SDS011;6658;53.080;7.428;2023-11-21T00:25:01;14.27;;;9.17;;
13185;SDS011;6658;53.080;7.428;2023-11-21T00:27:29;12.63;;;8.73;;
13185;SDS011;6658;53.080;7.428;2023-11-21T00:29:55;12.23;;;8.40;;
13185;SDS011;6658;53.080;7.428;2023-11-21T00:32:20;16.90;;;9.43;;
13185;SDS011;6658;53.080;7.428;2023-11-21T00:34:46;18.10;;;9.77;;
13185;SDS011;6658;53.080;7.428;2023-11-21T00:37:12;15.77;;;10.23;;
13185;SDS011;6658;53.080;7.428;2023-11-21T00:39:37;16.17;;;9.03;;
13185;SDS011;6658;53.080;7.428;2023-11-21T00:42:03;15.20;;;9.20;;
13185;SDS011;6658;53.080;7.428;2023-11-21T00:44:30;19.17;;;10.93;;
13185;SDS011;6658;53.080;7.428;2023-11-21T00:46:55;16.10;;;10.40;;
13185;SDS011;6658;53.080;7.428;2023-11-21T00:49:21;17.40;;;10.30;;
13185;SDS011;6658;53.080;7.428;2023-11-21T00:51:47;15.23;;;10.00;;
13185;SDS011;6658;53.080;7.428;2023-11-21T00:54:12;17.57;;;9.87;;
13185;SDS011;6658;53.080;7.428;2023-11-21T00:56:38;12.93;;;9.13;;
13185;SDS011;6658;53.080;7.428;2023-11-21T00:59:05;16.30;;;9.77;;
13185;SDS011;6658;53.080;7.428;2023-11-21T01:01:30;15.13;;;10.10;;
13185;SDS011;6658;53.080;7.428;2023-11-21T01:03:56;15.27;;;9.30;;
13185;SDS011;6658;53.080;7.428;2023-11-21T01:06:22;15.83;;;10.00;;
13185;SDS011;6658;53.080;7.428;2023-11-21T01:08:47;16.07;;;10.83;;
13185;SDS011;6658;53.080;7.428;2023-11-21T01:11:13;15.23;;;10.30;;
13185;SDS011;6658;53.080;7.428;2023-11-21T01:13:39;18.90;;;10.23;;
13185;SDS011;6658;53.080;7.428;2023-11-21T01:16:06;17.43;;;10.13;;
13185;SDS011;6658;53.080;7.428;2023-11-21T01:18:32;16.20;;;10.37;;
13185;SDS011;6658;53.080;7.428;2023-11-21T01:20:58;17.30;;;9.87;;
13185;SDS011;6658;53.080;7.428;2023-11-21T01:23:26;21.13;;;10.33;;
13185;SDS011;6658;53.080;7.428;2023-11-21T01:25:52;15.20;;;9.47;;
13185;SDS011;6658;53.080;7.428;2023-11-21T01:28:21;16.60;;;9.73;;
13185;SDS011;6658;53.080;7.428;2023-11-21T01:30:46;18.50;;;10.50;;
13185;SDS011;6658;53.080;7.428;2023-11-21T01:33:12;17.97;;;10.27;;
13185;SDS011;6658;53.080;7.428;2023-11-21T01:35:40;13.97;;;9.83;;
13185;SDS011;6658;53.080;7.428;2023-11-21T01:38:06;15.57;;;9.73;;
13185;SDS011;6658;53.080;7.428;2023-11-21T01:40:33;20.60;;;9.90;;
13185;SDS011;6658;53.080;7.428;2023-11-21T01:42:59;18.23;;;10.57;;
13185;SDS011;6658;53.080;7.428;2023-11-21T01:45:28;16.77;;;9.33;;
13185;SDS011;6658;53.080;7.428;2023-11-21T01:47:56;16.10;;;9.90;;
13185;SDS011;6658;53.080;7.428;2023-11-21T01:50:21;15.27;;;9.47;;
13185;SDS011;6658;53.080;7.428;2023-11-21T01:52:48;13.17;;;10.70;;
13185;SDS011;6658;53.080;7.428;2023-11-21T01:55:14;17.70;;;9.77;;
13185;SDS011;6658;53.080;7.428;2023-11-21T01:57:45;15.27;;;10.10;;
13185;SDS011;6658;53.080;7.428;2023-11-21T02:00:11;16.67;;;10.37;;
13185;SDS011;6658;53.080;7.428;2023-11-21T02:02:42;13.53;;;9.50;;
13185;SDS011;6658;53.080;7.428;2023-11-21T02:05:09;16.03;;;10.27;;
13185;SDS011;6658;53.080;7.428;2023-11-21T02:07:37;14.80;;;9.83;;
13185;SDS011;6658;53.080;7.428;2023-11-21T02:10:07;16.43;;;9.47;;
13185;SDS011;6658;53.080;7.428;2023-11-21T02:12:34;15.47;;;9.73;;
13185;SDS011;6658;53.080;7.428;2023-11-21T02:15:01;16.07;;;9.73;;
13185;SDS011;6658;53.080;7.428;2023-11-21T02:17:34;16.17;;;9.70;;
13185;SDS011;6658;53.080;7.428;2023-11-21T02:20:00;14.73;;;9.43;;
13185;SDS011;6658;53.080;7.428;2023-11-21T02:22:28;14.57;;;9.57;;
13185;SDS011;6658;53.080;7.428;2023-11-21T02:24:57;12.63;;;10.03;;
13185;SDS011;6658;53.080;7.428;2023-11-21T02:27:23;16.87;;;11.43;;
13185;SDS011;6658;53.080;7.428;2023-11-21T02:29:49;16.80;;;11.37;;
13185;SDS011;6658;53.080;7.428;2023-11-21T02:32:15;15.97;;;10.60;;
13185;SDS011;6658;53.080;7.428;2023-11-21T02:34:44;14.33;;;9.70;;
13185;SDS011;6658;53.080;7.428;2023-11-21T02:37:09;13.67;;;9.63;;
13185;SDS011;6658;53.080;7.428;2023-11-21T02:39:35;14.60;;;10.00;;
13185;SDS011;6658;53.080;7.428;2023-11-21T02:42:01;17.93;;;11.60;;
13185;SDS011;6658;53.080;7.428;2023-11-21T02:44:26;16.97;;;10.67;;
13185;SDS011;6658;53.080;7.428;2023-11-21T02:46:52;19.80;;;10.77;;
13185;SDS011;6658;53.080;7.428;2023-11-21T02:49:18;16.53;;;10.80;;
13185;SDS011;6658;53.080;7.428;2023-11-21T02:51:44;17.27;;;10.53;;
13185;SDS011;6658;53.080;7.428;2023-11-21T02:54:11;15.57;;;10.07;;
13185;SDS011;6658;53.080;7.428;2023-11-21T02:56:36;17.43;;;10.10;;
13185;SDS011;6658;53.080;7.428;2023-11-21T02:59:02;16.73;;;10.37;;
13185;SDS011;6658;53.080;7.428;2023-11-21T03:01:28;18.60;;;10.80;;
13185;SDS011;6658;53.080;7.428;2023-11-21T03:03:54;16.67;;;10.17;;
13185;SDS011;6658;53.080;7.428;2023-11-21T03:06:20;19.27;;;11.13;;
13185;SDS011;6658;53.080;7.428;2023-11-21T03:08:46;18.73;;;11.20;;
13185;SDS011;6658;53.080;7.428;2023-11-21T03:11:12;16.80;;;10.97;;
13185;SDS011;6658;53.080;7.428;2023-11-21T03:13:41;17.30;;;11.13;;
13185;SDS011;6658;53.080;7.428;2023-11-21T03:16:10;15.67;;;10.53;;
13185;SDS011;6658;53.080;7.428;2023-11-21T03:18:37;18.20;;;10.77;;
13185;SDS011;6658;53.080;7.428;2023-11-21T03:21:07;16.40;;;11.07;;
13185;SDS011;6658;53.080;7.428;2023-11-21T03:23:36;19.37;;;11.60;;
13185;SDS011;6658;53.080;7.428;2023-11-21T03:26:02;13.53;;;10.07;;
13185;SDS011;6658;53.080;7.428;2023-11-21T03:28:28;14.80;;;10.43;;
13185;SDS011;6658;53.080;7.428;2023-11-21T03:30:55;15.53;;;11.43;;
13185;SDS011;6658;53.080;7.428;2023-11-21T03:33:21;14.87;;;10.73;;
13185;SDS011;6658;53.080;7.428;2023-11-21T03:35:47;16.13;;;11.60;;
13185;SDS011;6658;53.080;7.428;2023-11-21T03:38:13;14.40;;;10.43;;
13185;SDS011;6658;53.080;7.428;2023-11-21T03:40:39;15.43;;;10.60;;
13185;SDS011;6658;53.080;7.428;2023-11-21T03:43:05;15.63;;;10.50;;
13185;SDS011;6658;53.080;7.428;2023-11-21T03:45:31;15.63;;;10.23;;
13185;SDS011;6658;53.080;7.428;2023-11-21T03:47:57;13.73;;;10.67;;
13185;SDS011;6658;53.080;7.428;2023-11-21T03:50:23;19.87;;;11.50;;
13185;SDS011;6658;53.080;7.428;2023-11-21T03:52:48;16.20;;;10.67;;
13185;SDS011;6658;53.080;7.428;2023-11-21T03:55:14;17.87;;;11.83;;
13185;SDS011;6658;53.080;7.428;2023-11-21T03:57:40;20.63;;;11.63;;
13185;SDS011;6658;53.080;7.428;2023-11-21T04:00:06;16.57;;;11.90;;
13185;SDS011;6658;53.080;7.428;2023-11-21T04:02:34;18.30;;;11.70;;
13185;SDS011;6658;53.080;7.428;2023-11-21T04:05:00;21.93;;;12.67;;
13185;SDS011;6658;53.080;7.428;2023-11-21T04:07:26;16.67;;;11.73;;
13185;SDS011;6658;53.080;7.428;2023-11-21T04:09:52;17.57;;;11.20;;
13185;SDS011;6658;53.080;7.428;2023-11-21T04:12:18;16.07;;;11.30;;
13185;SDS011;6658;53.080;7.428;2023-11-21T04:14:44;18.30;;;12.60;;
13185;SDS011;6658;53.080;7.428;2023-11-21T04:17:10;23.47;;;12.00;;
13185;SDS011;6658;53.080;7.428;2023-11-21T04:19:36;16.07;;;11.80;;
13185;SDS011;6658;53.080;7.428;2023-11-21T04:22:01;16.80;;;12.03;;
13185;SDS011;6658;53.080;7.428;2023-11-21T04:24:27;16.43;;;11.57;;
13185;SDS011;6658;53.080;7.428;2023-11-21T04:26:53;19.43;;;11.80;;
13185;SDS011;6658;53.080;7.428;2023-11-21T04:29:18;22.53;;;12.60;;
13185;SDS011;6658;53.080;7.428;2023-11-21T04:31:44;21.37;;;12.37;;
13185;SDS011;6658;53.080;7.428;2023-11-21T04:34:11;18.43;;;11.33;;
13185;SDS011;6658;53.080;7.428;2023-11-21T04:36:39;22.07;;;13.23;;
13185;SDS011;6658;53.080;7.428;2023-11-21T04:39:05;25.70;;;12.97;;
13185;SDS011;6658;53.080;7.428;2023-11-21T04:41:31;20.00;;;12.00;;
13185;SDS011;6658;53.080;7.428;2023-11-21T04:43:57;20.33;;;12.83;;
13185;SDS011;6658;53.080;7.428;2023-11-21T04:46:25;21.93;;;12.50;;
13185;SDS011;6658;53.080;7.428;2023-11-21T04:48:51;25.07;;;13.47;;
13185;SDS011;6658;53.080;7.428;2023-11-21T04:51:17;26.63;;;13.17;;
13185;SDS011;6658;53.080;7.428;2023-11-21T04:53:43;28.17;;;14.17;;
13185;SDS011;6658;53.080;7.428;2023-11-21T04:56:08;24.27;;;13.73;;
13185;SDS011;6658;53.080;7.428;2023-11-21T04:58:34;28.47;;;13.83;;
13185;SDS011;6658;53.080;7.428;2023-11-21T05:01:00;25.73;;;12.87;;
13185;SDS011;6658;53.080;7.428;2023-11-21T05:03:26;25.50;;;12.20;;
13185;SDS011;6658;53.080;7.428;2023-11-21T05:05:52;21.70;;;12.37;;
13185;SDS011;6658;53.080;7.428;2023-11-21T05:08:17;18.57;;;11.17;;
13185;SDS011;6658;53.080;7.428;2023-11-21T05:10:45;16.83;;;10.23;;
13185;SDS011;6658;53.080;7.428;2023-11-21T05:13:11;15.33;;;9.93;;
13185;SDS011;6658;53.080;7.428;2023-11-21T05:15:36;14.60;;;10.07;;
13185;SDS011;6658;53.080;7.428;2023-11-21T05:18:04;15.17;;;10.03;;
13185;SDS011;6658;53.080;7.428;2023-11-21T05:20:30;15.57;;;10.27;;
13185;SDS011;6658;53.080;7.428;2023-11-21T05:22:56;13.83;;;9.43;;
13185;SDS011;6658;53.080;7.428;2023-11-21T05:25:21;11.97;;;9.93;;
13185;SDS011;6658;53.080;7.428;2023-11-21T05:27:47;14.00;;;10.30;;
13185;SDS011;6658;53.080;7.428;2023-11-21T05:30:13;14.50;;;9.77;;
13185;SDS011;6658;53.080;7.428;2023-11-21T05:32:39;13.60;;;9.23;;
13185;SDS011;6658;53.080;7.428;2023-11-21T05:35:09;12.70;;;8.90;;
13185;SDS011;6658;53.080;7.428;2023-11-21T05:37:40;13.07;;;9.27;;
13185;SDS011;6658;53.080;7.428;2023-11-21T05:40:06;14.67;;;9.17;;
13185;SDS011;6658;53.080;7.428;2023-11-21T05:42:36;14.47;;;9.27;;
13185;SDS011;6658;53.080;7.428;2023-11-21T05:45:04;14.57;;;10.00;;
13185;SDS011;6658;53.080;7.428;2023-11-21T05:47:40;14.90;;;9.40;;
13185;SDS011;6658;53.080;7.428;2023-11-21T05:50:11;13.80;;;8.87;;
13185;SDS011;6658;53.080;7.428;2023-11-21T05:52:39;18.90;;;9.00;;
13185;SDS011;6658;53.080;7.428;2023-11-21T05:55:06;15.90;;;9.90;;
13185;SDS011;6658;53.080;7.428;2023-11-21T05:57:35;15.90;;;9.80;;
13185;SDS011;6658;53.080;7.428;2023-11-21T06:00:23;17.97;;;9.80;;
13185;SDS011;6658;53.080;7.428;2023-11-21T06:02:50;15.53;;;10.03;;
13185;SDS011;6658;53.080;7.428;2023-11-21T06:05:21;12.53;;;7.73;;
13185;SDS011;6658;53.080;7.428;2023-11-21T06:07:48;12.40;;;8.77;;
13185;SDS011;6658;53.080;7.428;2023-11-21T06:10:14;11.00;;;8.90;;
13185;SDS011;6658;53.080;7.428;2023-11-21T06:12:42;14.30;;;9.33;;
13185;SDS011;6658;53.080;7.428;2023-11-21T06:15:08;17.20;;;10.90;;
13185;SDS011;6658;53.080;7.428;2023-11-21T06:17:38;18.87;;;11.60;;
13185;SDS011;6658;53.080;7.428;2023-11-21T06:20:08;20.43;;;11.87;;
13185;SDS011;6658;53.080;7.428;2023-11-21T06:22:39;18.67;;;12.23;;
13185;SDS011;6658;53.080;7.428;2023-11-21T06:25:07;19.50;;;10.80;;
13185;SDS011;6658;53.080;7.428;2023-11-21T06:27:34;21.17;;;11.57;;
13185;SDS011;6658;53.080;7.428;2023-11-21T06:30:13;16.50;;;10.53;;
13185;SDS011;6658;53.080;7.428;2023-11-21T06:32:40;15.87;;;11.20;;
13185;SDS011;6658;53.080;7.428;2023-11-21T06:35:07;18.87;;;11.77;;
13185;SDS011;6658;53.080;7.428;2023-11-21T06:37:36;17.07;;;10.97;;
13185;SDS011;6658;53.080;7.428;2023-11-21T06:40:02;15.93;;;10.90;;
13185;SDS011;6658;53.080;7.428;2023-11-21T06:42:31;18.30;;;11.33;;
13185;SDS011;6658;53.080;7.428;2023-11-21T06:44:58;17.17;;;12.07;;
13185;SDS011;6658;53.080;7.428;2023-11-21T06:47:24;18.87;;;12.37;;
13185;SDS011;6658;53.080;7.428;2023-11-21T06:49:51;17.43;;;11.90;;
13185;SDS011;6658;53.080;7.428;2023-11-21T06:52:19;18.77;;;13.77;;
13185;SDS011;6658;53.080;7.428;2023-11-21T06:54:45;15.63;;;11.27;;
13185;SDS011;6658;53.080;7.428;2023-11-21T06:57:12;15.87;;;12.50;;
13185;SDS011;6658;53.080;7.428;2023-11-21T06:59:38;12.70;;;9.40;;
13185;SDS011;6658;53.080;7.428;2023-11-21T07:02:04;19.47;;;12.57;;
13185;SDS011;6658;53.080;7.428;2023-11-21T07:04:34;17.30;;;12.23;;
13185;SDS011;6658;53.080;7.428;2023-11-21T07:07:03;18.73;;;11.73;;
13185;SDS011;6658;53.080;7.428;2023-11-21T07:09:29;16.40;;;12.93;;
13185;SDS011;6658;53.080;7.428;2023-11-21T07:11:56;17.57;;;13.60;;
13185;SDS011;6658;53.080;7.428;2023-11-21T07:14:22;15.77;;;11.13;;
13185;SDS011;6658;53.080;7.428;2023-11-21T07:16:48;15.70;;;13.17;;
13185;SDS011;6658;53.080;7.428;2023-11-21T07:19:13;15.67;;;11.97;;
13185;SDS011;6658;53.080;7.428;2023-11-21T07:21:39;15.17;;;13.53;;
13185;SDS011;6658;53.080;7.428;2023-11-21T07:24:06;18.87;;;14.63;;
13185;SDS011;6658;53.080;7.428;2023-11-21T07:26:33;18.10;;;14.83;;
13185;SDS011;6658;53.080;7.428;2023-11-21T07:28:59;18.47;;;14.83;;
13185;SDS011;6658;53.080;7.428;2023-11-21T07:31:26;19.47;;;15.07;;
13185;SDS011;6658;53.080;7.428;2023-11-21T07:33:52;20.33;;;14.80;;
13185;SDS011;6658;53.080;7.428;2023-11-21T07:36:17;21.07;;;13.70;;
13185;SDS011;6658;53.080;7.428;2023-11-21T07:38:45;21.70;;;15.60;;
13185;SDS011;6658;53.080;7.428;2023-11-21T07:41:12;19.67;;;14.43;;
13185;SDS011;6658;53.080;7.428;2023-11-21T07:43:41;16.90;;;14.83;;
13185;SDS011;6658;53.080;7.428;2023-11-21T07:46:10;15.80;;;13.40;;
13185;SDS011;6658;53.080;7.428;2023-11-21T07:48:37;16.63;;;14.63;;
13185;SDS011;6658;53.080;7.428;2023-11-21T07:51:04;17.57;;;14.73;;
13185;SDS011;6658;53.080;7.428;2023-11-21T07:53:30;17.80;;;14.70;;
13185;SDS011;6658;53.080;7.428;2023-11-21T07:55:56;19.10;;;15.33;;
13185;SDS011;6658;53.080;7.428;2023-11-21T07:58:23;18.90;;;13.43;;
13185;SDS011;6658;53.080;7.428;2023-11-21T08:00:49;15.00;;;10.87;;
13185;SDS011;6658;53.080;7.428;2023-11-21T08:03:15;12.17;;;9.40;;
13185;SDS011;6658;53.080;7.428;2023-11-21T08:05:41;12.70;;;10.63;;
13185;SDS011;6658;53.080;7.428;2023-11-21T08:08:07;10.87;;;9.17;;
13185;SDS011;6658;53.080;7.428;2023-11-21T08:10:33;7.87;;;6.30;;
13185;SDS011;6658;53.080;7.428;2023-11-21T08:12:58;13.27;;;10.73;;
13185;SDS011;6658;53.080;7.428;2023-11-21T08:15:24;13.20;;;11.27;;
13185;SDS011;6658;53.080;7.428;2023-11-21T08:17:50;12.43;;;8.93;;
13185;SDS011;6658;53.080;7.428;2023-11-21T08:20:16;20.37;;;11.40;;
13185;SDS011;6658;53.080;7.428;2023-11-21T08:22:43;10.93;;;9.77;;
13185;SDS011;6658;53.080;7.428;2023-11-21T08:25:09;11.77;;;10.53;;
13185;SDS011;6658;53.080;7.428;2023-11-21T08:27:35;11.57;;;9.07;;
13185;SDS011;6658;53.080;7.428;2023-11-21T08:30:02;10.67;;;8.60;;
13185;SDS011;6658;53.080;7.428;2023-11-21T08:32:28;11.73;;;8.90;;
13185;SDS011;6658;53.080;7.428;2023-11-21T08:34:55;11.10;;;9.20;;
13185;SDS011;6658;53.080;7.428;2023-11-21T08:37:21;9.67;;;8.63;;
13185;SDS011;6658;53.080;7.428;2023-11-21T08:39:47;9.60;;;7.67;;
13185;SDS011;6658;53.080;7.428;2023-11-21T08:42:18;8.73;;;7.83;;
13185;SDS011;6658;53.080;7.428;2023-11-21T08:44:44;7.70;;;6.90;;
13185;SDS011;6658;53.080;7.428;2023-11-21T08:47:09;8.43;;;7.63;;
13185;SDS011;6658;53.080;7.428;2023-11-21T08:49:35;7.70;;;6.60;;
13185;SDS011;6658;53.080;7.428;2023-11-21T08:52:01;6.90;;;6.30;;
13185;SDS011;6658;53.080;7.428;2023-11-21T08:54:27;7.00;;;6.17;;
13185;SDS011;6658;53.080;7.428;2023-11-21T08:56:53;6.57;;;5.60;;
13185;SDS011;6658;53.080;7.428;2023-11-21T08:59:20;6.60;;;5.93;;
13185;SDS011;6658;53.080;7.428;2023-11-21T09:01:46;6.33;;;5.80;;
13185;SDS011;6658;53.080;7.428;2023-11-21T09:04:12;7.07;;;6.00;;
13185;SDS011;6658;53.080;7.428;2023-11-21T09:06:39;6.80;;;6.20;;
13185;SDS011;6658;53.080;7.428;2023-11-21T09:09:05;6.83;;;6.23;;
13185;SDS011;6658;53.080;7.428;2023-11-21T09:11:34;6.73;;;6.13;;
13185;SDS011;6658;53.080;7.428;2023-11-21T09:14:00;6.63;;;6.00;;
13185;SDS011;6658;53.080;7.428;2023-11-21T09:16:26;7.27;;;6.10;;
13185;SDS011;6658;53.080;7.428;2023-11-21T09:18:52;5.43;;;4.93;;
13185;SDS011;6658;53.080;7.428;2023-11-21T09:21:18;5.67;;;5.17;;
13185;SDS011;6658;53.080;7.428;2023-11-21T09:23:46;5.67;;;5.13;;
13185;SDS011;6658;53.080;7.428;2023-11-21T09:26:13;5.53;;;5.03;;
13185;SDS011;6658;53.080;7.428;2023-11-21T09:28:41;6.20;;;5.60;;
13185;SDS011;6658;53.080;7.428;2023-11-21T09:31:11;5.40;;;5.00;;
13185;SDS011;6658;53.080;7.428;2023-11-21T09:33:37;5.33;;;4.83;;
13185;SDS011;6658;53.080;7.428;2023-11-21T09:36:03;4.83;;;4.43;;
13185;SDS011;6658;53.080;7.428;2023-11-21T09:38:30;4.90;;;4.50;;
13185;SDS011;6658;53.080;7.428;2023-11-21T09:40:56;5.70;;;5.20;;
13185;SDS011;6658;53.080;7.428;2023-11-21T09:43:23;4.83;;;4.30;;
13185;SDS011;6658;53.080;7.428;2023-11-21T09:45:59;4.73;;;4.33;;
13185;SDS011;6658;53.080;7.428;2023-11-21T09:48:27;5.70;;;5.13;;
13185;SDS011;6658;53.080;7.428;2023-11-21T09:50:54;5.17;;;4.57;;
13185;SDS011;6658;53.080;7.428;2023-11-21T09:53:20;5.17;;;4.67;;
13185;SDS011;6658;53.080;7.428;2023-11-21T09:55:47;4.80;;;4.40;;
13185;SDS011;6658;53.080;7.428;2023-11-21T09:58:16;5.67;;;4.83;;
13185;SDS011;6658;53.080;7.428;2023-11-21T10:00:45;5.77;;;5.27;;
13185;SDS011;6658;53.080;7.428;2023-11-21T10:03:12;5.37;;;4.87;;
13185;SDS011;6658;53.080;7.428;2023-11-21T10:05:38;5.00;;;4.60;;
13185;SDS011;6658;53.080;7.428;2023-11-21T10:08:09;5.07;;;4.57;;
13185;SDS011;6658;53.080;7.428;2023-11-21T10:10:43;4.63;;;4.23;;
13185;SDS011;6658;53.080;7.428;2023-11-21T10:13:11;4.77;;;4.37;;
13185;SDS011;6658;53.080;7.428;2023-11-21T10:15:38;5.80;;;5.10;;
13185;SDS011;6658;53.080;7.428;2023-11-21T10:18:07;4.97;;;4.57;;
13185;SDS011;6658;53.080;7.428;2023-11-21T10:20:34;5.50;;;5.00;;
13185;SDS011;6658;53.080;7.428;2023-11-21T10:23:02;7.37;;;6.23;;
13185;SDS011;6658;53.080;7.428;2023-11-21T10:25:29;5.37;;;4.87;;
13185;SDS011;6658;53.080;7.428;2023-11-21T10:28:01;6.60;;;4.73;;
13185;SDS011;6658;53.080;7.428;2023-11-21T10:30:35;4.90;;;4.50;;
13185;SDS011;6658;53.080;7.428;2023-11-21T10:33:03;4.63;;;4.10;;
13185;SDS011;6658;53.080;7.428;2023-11-21T10:38:12;5.27;;;4.77;;
13185;SDS011;6658;53.080;7.428;2023-11-21T10:40:39;5.07;;;4.67;;
13185;SDS011;6658;53.080;7.428;2023-11-21T10:43:06;5.03;;;4.17;;
13185;SDS011;6658;53.080;7.428;2023-11-21T10:45:37;4.93;;;4.20;;
13185;SDS011;6658;53.080;7.428;2023-11-21T10:48:07;4.60;;;4.20;;
13185;SDS011;6658;53.080;7.428;2023-11-21T10:50:34;7.37;;;4.40;;
13185;SDS011;6658;53.080;7.428;2023-11-21T10:53:04;5.40;;;4.50;;
13185;SDS011;6658;53.080;7.428;2023-11-21T10:55:31;4.77;;;4.27;;
13185;SDS011;6658;53.080;7.428;2023-11-21T10:58:02;4.83;;;4.40;;
13185;SDS011;6658;53.080;7.428;2023-11-21T11:00:30;4.50;;;4.10;;
13185;SDS011;6658;53.080;7.428;2023-11-21T11:02:57;4.90;;;4.40;;
13185;SDS011;6658;53.080;7.428;2023-11-21T11:05:24;5.10;;;4.57;;
13185;SDS011;6658;53.080;7.428;2023-11-21T11:08:12;4.60;;;4.20;;
13185;SDS011;6658;53.080;7.428;2023-11-21T11:10:37;4.70;;;4.30;;
13185;SDS011;6658;53.080;7.428;2023-11-21T11:13:03;4.60;;;4.20;;
13185;SDS011;6658;53.080;7.428;2023-11-21T11:15:31;4.70;;;4.30;;
13185;SDS011;6658;53.080;7.428;2023-11-21T11:17:58;3.83;;;3.53;;
13185;SDS011;6658;53.080;7.428;2023-11-21T11:20:30;4.60;;;4.20;;
13185;SDS011;6658;53.080;7.428;2023-11-21T11:23:05;5.87;;;4.53;;
13185;SDS011;6658;53.080;7.428;2023-11-21T11:29:09;4.87;;;3.83;;
13185;SDS011;6658;53.080;7.428;2023-11-21T11:31:50;4.50;;;4.10;;
13185;SDS011;6658;53.080;7.428;2023-11-21T11:34:30;4.90;;;4.40;;
13185;SDS011;6658;53.080;7.428;2023-11-21T11:37:06;5.13;;;4.70;;
13185;SDS011;6658;53.080;7.428;2023-11-21T11:39:35;4.73;;;4.33;;
13185;SDS011;6658;53.080;7.428;2023-11-21T11:42:03;5.43;;;4.30;;
13185;SDS011;6658;53.080;7.428;2023-11-21T11:47:31;4.63;;;4.27;;
13185;SDS011;6658;53.080;7.428;2023-11-21T11:50:06;5.10;;;4.60;;
13185;SDS011;6658;53.080;7.428;2023-11-21T11:52:33;5.00;;;4.60;;
13185;SDS011;6658;53.080;7.428;2023-11-21T11:55:00;4.40;;;4.00;;
13185;SDS011;6658;53.080;7.428;2023-11-21T11:57:31;4.40;;;4.00;;
13185;SDS011;6658;53.080;7.428;2023-11-21T12:00:09;4.20;;;3.80;;
13185;SDS011;6658;53.080;7.428;2023-11-21T12:02:41;4.80;;;4.40;;
13185;SDS011;6658;53.080;7.428;2023-11-21T12:05:10;4.50;;;4.10;;
13185;SDS011;6658;53.080;7.428;2023-11-21T12:07:42;4.10;;;3.73;;
13185;SDS011;6658;53.080;7.428;2023-11-21T12:10:14;4.10;;;3.70;;
13185;SDS011;6658;53.080;7.428;2023-11-21T12:12:43;4.23;;;3.80;;
13185;SDS011;6658;53.080;7.428;2023-11-21T12:15:13;4.80;;;4.40;;
13185;SDS011;6658;53.080;7.428;2023-11-21T12:17:42;4.53;;;4.13;;
13185;SDS011;6658;53.080;7.428;2023-11-21T12:20:09;6.23;;;4.60;;
13185;SDS011;6658;53.080;7.428;2023-11-21T12:22:52;5.17;;;4.70;;
13185;SDS011;6658;53.080;7.428;2023-11-21T12:25:20;5.33;;;4.83;;
13185;SDS011;6658;53.080;7.428;2023-11-21T12:27:47;4.93;;;3.90;;
13185;SDS011;6658;53.080;7.428;2023-11-21T12:30:18;4.87;;;4.47;;
13185;SDS011;6658;53.080;7.428;2023-11-21T12:32:53;4.57;;;4.00;;
13185;SDS011;6658;53.080;7.428;2023-11-21T12:35:41;4.50;;;4.13;;
13185;SDS011;6658;53.080;7.428;2023-11-21T12:38:09;4.70;;;4.10;;
13185;SDS011;6658;53.080;7.428;2023-11-21T12:40:35;4.40;;;4.00;;
13185;SDS011;6658;53.080;7.428;2023-11-21T12:43:00;6.00;;;4.40;;
13185;SDS011;6658;53.080;7.428;2023-11-21T12:45:29;4.40;;;4.00;;
13185;SDS011;6658;53.080;7.428;2023-11-21T12:47:59;9.50;;;4.93;;
13185;SDS011;6658;53.080;7.428;2023-11-21T12:50:33;4.53;;;3.93;;
13185;SDS011;6658;53.080;7.428;2023-11-21T12:55:31;4.67;;;4.17;;
13185;SDS011;6658;53.080;7.428;2023-11-21T12:57:59;4.40;;;4.00;;
13185;SDS011;6658;53.080;7.428;2023-11-21T13:00:34;4.30;;;3.40;;
13185;SDS011;6658;53.080;7.428;2023-11-21T13:03:02;3.77;;;3.47;;
13185;SDS011;6658;53.080;7.428;2023-11-21T13:05:30;4.27;;;3.17;;
13185;SDS011;6658;53.080;7.428;2023-11-21T13:07:58;3.50;;;3.20;;
13185;SDS011;6658;53.080;7.428;2023-11-21T13:10:27;5.13;;;3.50;;
13185;SDS011;6658;53.080;7.428;2023-11-21T13:12:59;3.67;;;3.20;;
13185;SDS011;6658;53.080;7.428;2023-11-21T13:15:29;3.77;;;3.47;;
13185;SDS011;6658;53.080;7.428;2023-11-21T13:17:56;3.67;;;3.37;;
13185;SDS011;6658;53.080;7.428;2023-11-21T13:20:23;4.00;;;3.70;;
13185;SDS011;6658;53.080;7.428;2023-11-21T13:22:53;4.83;;;3.67;;
13185;SDS011;6658;53.080;7.428;2023-11-21T13:25:22;5.13;;;3.40;;
13185;SDS011;6658;53.080;7.428;2023-11-21T13:27:49;4.70;;;3.67;;
13185;SDS011;6658;53.080;7.428;2023-11-21T13:30:16;10.27;;;4.50;;
13185;SDS011;6658;53.080;7.428;2023-11-21T13:32:43;4.40;;;3.50;;
13185;SDS011;6658;53.080;7.428;2023-11-21T13:35:09;3.70;;;3.40;;
13185;SDS011;6658;53.080;7.428;2023-11-21T13:37:46;4.43;;;4.03;;
13185;SDS011;6658;53.080;7.428;2023-11-21T13:40:20;3.67;;;3.37;;
13185;SDS011;6658;53.080;7.428;2023-11-21T13:42:54;3.80;;;3.50;;
13185;SDS011;6658;53.080;7.428;2023-11-21T13:45:24;3.40;;;3.10;;
13185;SDS011;6658;53.080;7.428;2023-11-21T13:47:51;4.73;;;3.37;;
13185;SDS011;6658;53.080;7.428;2023-11-21T13:50:22;3.90;;;3.60;;
13185;SDS011;6658;53.080;7.428;2023-11-21T13:52:51;4.00;;;3.60;;
13185;SDS011;6658;53.080;7.428;2023-11-21T13:55:18;4.07;;;3.60;;
13185;SDS011;6658;53.080;7.428;2023-11-21T13:57:44;5.17;;;3.20;;
13185;SDS011;6658;53.080;7.428;2023-11-21T14:00:14;2.90;;;2.70;;
13185;SDS011;6658;53.080;7.428;2023-11-21T14:02:59;3.80;;;3.50;;
13185;SDS011;6658;53.080;7.428;2023-11-21T14:05:25;4.97;;;3.37;;
13185;SDS011;6658;53.080;7.428;2023-11-21T14:07:55;3.50;;;3.20;;
13185;SDS011;6658;53.080;7.428;2023-11-21T14:10:26;3.53;;;3.20;;
13185;SDS011;6658;53.080;7.428;2023-11-21T14:12:52;3.20;;;2.90;;
13185;SDS011;6658;53.080;7.428;2023-11-21T14:15:17;3.50;;;3.00;;
13185;SDS011;6658;53.080;7.428;2023-11-21T14:17:44;3.10;;;2.90;;
13185;SDS011;6658;53.080;7.428;2023-11-21T14:20:10;3.00;;;2.80;;
13185;SDS011;6658;53.080;7.428;2023-11-21T14:22:45;3.10;;;2.80;;
13185;SDS011;6658;53.080;7.428;2023-11-21T14:25:11;4.20;;;2.60;;
13185;SDS011;6658;53.080;7.428;2023-11-21T14:27:39;3.27;;;2.97;;
13185;SDS011;6658;53.080;7.428;2023-11-21T14:30:05;2.60;;;2.40;;
13185;SDS011;6658;53.080;7.428;2023-11-21T14:32:31;3.20;;;2.90;;
13185;SDS011;6658;53.080;7.428;2023-11-21T14:34:57;3.20;;;2.90;;
13185;SDS011;6658;53.080;7.428;2023-11-21T14:37:22;4.43;;;3.13;;
13185;SDS011;6658;53.080;7.428;2023-11-21T14:39:49;3.17;;;2.87;;
13185;SDS011;6658;53.080;7.428;2023-11-21T14:42:15;3.07;;;2.77;;
13185;SDS011;6658;53.080;7.428;2023-11-21T14:44:41;2.80;;;2.60;;
13185;SDS011;6658;53.080;7.428;2023-11-21T14:47:07;2.60;;;2.40;;
13185;SDS011;6658;53.080;7.428;2023-11-21T14:49:43;2.37;;;2.03;;
13185;SDS011;6658;53.080;7.428;2023-11-21T14:52:21;2.37;;;2.17;;
13185;SDS011;6658;53.080;7.428;2023-11-21T14:55:07;2.50;;;2.30;;
13185;SDS011;6658;53.080;7.428;2023-11-21T14:57:48;3.00;;;2.70;;
13185;SDS011;6658;53.080;7.428;2023-11-21T15:00:17;3.20;;;2.90;;
13185;SDS011;6658;53.080;7.428;2023-11-21T15:03:17;3.10;;;2.80;;